sensor_id;sensor_type;location;lat;lon;timestamp;pressure;altitude;pressure_sealevel;temperature;humidity
35694;BME280;21812;55.536;37.664;2022-12-29T00:01:55;99548.03;;;0.53;72.44
35694;BME280;21812;55.536;37.664;2022-12-29T00:04:20;99548.94;;;0.63;72.34
35694;BME280;21812;55.536;37.664;2022-12-29T00:06:46;99563.59;;;0.66;71.54
35694;BME280;21812;55.536;37.664;2022-12-29T00:09:12;99571.94;;;0.71;71.61
35694;BME280;21812;55.536;37.664;2022-12-29T00:11:38;99560.56;;;0.70;71.09
35694;BME280;21812;55.536;37.664;2022-12-29T00:14:07;99543.56;;;0.44;70.98
35694;BME280;21812;55.536;37.664;2022-12-29T00:16:52;99561.44;;;0.50;71.32
35694;BME280;21812;55.536;37.664;2022-12-29T00:19:18;99563.16;;;0.39;71.08
35694;BME280;21812;55.536;37.664;2022-12-29T00:22:02;99567.25;;;0.32;71.28
35694;BME280;21812;55.536;37.664;2022-12-29T00:24:46;99571.16;;;0.38;71.36
35694;BME280;21812;55.536;37.664;2022-12-29T00:27:30;99571.06;;;0.39;71.24
35694;BME280;21812;55.536;37.664;2022-12-29T00:30:17;99572.97;;;0.16;70.89
35694;BME280;21812;55.536;37.664;2022-12-29T00:33:16;99568.94;;;0.12;70.75
35694;BME280;21812;55.536;37.664;2022-12-29T00:39:08;99565.28;;;0.25;71.47
35694;BME280;21812;55.536;37.664;2022-12-29T00:41:54;99572.34;;;0.24;70.28
35694;BME280;21812;55.536;37.664;2022-12-29T00:44:38;99572.84;;;0.39;70.75
35694;BME280;21812;55.536;37.664;2022-12-29T00:47:03;99567.25;;;0.32;70.14
35694;BME280;21812;55.536;37.664;2022-12-29T00:49:31;99565.63;;;0.31;70.36
35694;BME280;21812;55.536;37.664;2022-12-29T00:52:08;99511.22;;;0.01;69.73
35694;BME280;21812;55.536;37.664;2022-12-29T00:54:36;99577.28;;;0.17;69.76
35694;BME280;21812;55.536;37.664;2022-12-29T00:57:04;99564.78;;;0.10;70.21
35694;BME280;21812;55.536;37.664;2022-12-29T00:59:31;99574.31;;;0.11;69.81
35694;BME280;21812;55.536;37.664;2022-12-29T01:01:56;99572.47;;;-0.10;69.89
35694;BME280;21812;55.536;37.664;2022-12-29T01:04:24;99581.00;;;0.04;70.19
35694;BME280;21812;55.536;37.664;2022-12-29T01:06:50;99589.94;;;0.12;69.95
35694;BME280;21812;55.536;37.664;2022-12-29T01:09:17;99582.66;;;0.16;69.73
35694;BME280;21812;55.536;37.664;2022-12-29T01:12:03;99584.06;;;0.20;69.86
35694;BME280;21812;55.536;37.664;2022-12-29T01:14:29;99580.38;;;0.11;69.66
35694;BME280;21812;55.536;37.664;2022-12-29T01:16:56;99583.75;;;0.13;69.73
35694;BME280;21812;55.536;37.664;2022-12-29T01:19:22;99585.97;;;0.18;69.45
35694;BME280;21812;55.536;37.664;2022-12-29T01:21:49;99576.97;;;-0.01;69.47
35694;BME280;21812;55.536;37.664;2022-12-29T01:24:16;99589.16;;;0.01;69.83
35694;BME280;21812;55.536;37.664;2022-12-29T01:26:42;99583.19;;;-0.02;69.66
35694;BME280;21812;55.536;37.664;2022-12-29T01:29:08;99585.47;;;-0.08;69.54
35694;BME280;21812;55.536;37.664;2022-12-29T01:31:33;99589.09;;;-0.09;69.43
35694;BME280;21812;55.536;37.664;2022-12-29T01:33:59;99589.09;;;-0.09;69.89
35694;BME280;21812;55.536;37.664;2022-12-29T01:36:25;99590.50;;;-0.05;70.00
35694;BME280;21812;55.536;37.664;2022-12-29T01:38:50;99593.25;;;-0.07;69.75
35694;BME280;21812;55.536;37.664;2022-12-29T01:41:17;99596.22;;;0.00;70.01
35694;BME280;21812;55.536;37.664;2022-12-29T01:43:50;99596.53;;;0.07;69.28
35694;BME280;21812;55.536;37.664;2022-12-29T01:48:47;99568.16;;;0.01;69.43
35694;BME280;21812;55.536;37.664;2022-12-29T01:51:15;99589.16;;;0.01;69.02
35694;BME280;21812;55.536;37.664;2022-12-29T01:53:41;99568.75;;;-0.28;69.53
35694;BME280;21812;55.536;37.664;2022-12-29T01:56:10;99539.25;;;-0.53;69.98
35694;BME280;21812;55.536;37.664;2022-12-29T01:58:40;99581.84;;;-0.17;69.67
35694;BME280;21812;55.536;37.664;2022-12-29T02:01:07;99591.81;;;-0.11;69.76
35694;BME280;21812;55.536;37.664;2022-12-29T02:03:35;99604.47;;;-0.16;69.54
35694;BME280;21812;55.536;37.664;2022-12-29T02:06:10;99583.47;;;-0.16;69.95
35694;BME280;21812;55.536;37.664;2022-12-29T02:08:38;99598.63;;;-0.20;69.49
35694;BME280;21812;55.536;37.664;2022-12-29T02:11:05;99601.19;;;-0.29;70.20
35694;BME280;21812;55.536;37.664;2022-12-29T02:13:33;99609.06;;;-0.29;70.32
35694;BME280;21812;55.536;37.664;2022-12-29T02:35:40;99616.94;;;-0.41;70.73
35694;BME280;21812;55.536;37.664;2022-12-29T02:38:25;99595.25;;;-0.54;70.48
35694;BME280;21812;55.536;37.664;2022-12-29T02:46:20;99632.81;;;-0.53;70.63
35694;BME280;21812;55.536;37.664;2022-12-29T02:49:13;99637.72;;;-0.49;70.53
35694;BME280;21812;55.536;37.664;2022-12-29T02:54:29;99637.03;;;-0.62;70.71
35694;BME280;21812;55.536;37.664;2022-12-29T02:57:15;99631.88;;;-0.64;70.95
35694;BME280;21812;55.536;37.664;2022-12-29T02:59:42;99581.03;;;-0.95;71.24
35694;BME280;21812;55.536;37.664;2022-12-29T03:05:22;99635.22;;;-0.50;70.48
35694;BME280;21812;55.536;37.664;2022-12-29T03:08:05;99621.97;;;-0.49;70.45
35694;BME280;21812;55.536;37.664;2022-12-29T03:13:25;99624.13;;;-0.54;70.54
35694;BME280;21812;55.536;37.664;2022-12-29T03:21:39;99637.34;;;-0.67;69.88
35694;BME280;21812;55.536;37.664;2022-12-29T03:24:32;99572.69;;;-1.11;70.41
35694;BME280;21812;55.536;37.664;2022-12-29T03:27:02;99609.50;;;-1.02;70.50
35694;BME280;21812;55.536;37.664;2022-12-29T03:29:42;99627.00;;;-0.91;70.86
35694;BME280;21812;55.536;37.664;2022-12-29T03:32:12;99639.88;;;-0.88;70.71
35694;BME280;21812;55.536;37.664;2022-12-29T03:34:39;99644.78;;;-0.72;70.98
35694;BME280;21812;55.536;37.664;2022-12-29T03:37:10;99577.53;;;-1.07;70.17
35694;BME280;21812;55.536;37.664;2022-12-29T03:39:36;99645.59;;;-0.71;70.27
35694;BME280;21812;55.536;37.664;2022-12-29T03:42:05;99617.94;;;-0.87;70.37
35694;BME280;21812;55.536;37.664;2022-12-29T03:44:39;99654.88;;;-0.67;70.50
35694;BME280;21812;55.536;37.664;2022-12-29T03:47:09;99662.28;;;-0.61;70.66
35694;BME280;21812;55.536;37.664;2022-12-29T03:49:35;99639.53;;;-0.72;69.54
35694;BME280;21812;55.536;37.664;2022-12-29T03:52:03;99658.00;;;-0.73;69.90
35694;BME280;21812;55.536;37.664;2022-12-29T03:54:30;99664.44;;;-0.77;70.10
35694;BME280;21812;55.536;37.664;2022-12-29T03:56:57;99665.63;;;-0.82;70.29
35694;BME280;21812;55.536;37.664;2022-12-29T03:59:36;99667.53;;;-0.84;70.79
35694;BME280;21812;55.536;37.664;2022-12-29T04:02:04;99658.09;;;-0.86;70.78
35694;BME280;21812;55.536;37.664;2022-12-29T04:04:29;99671.09;;;-0.85;70.65
35694;BME280;21812;55.536;37.664;2022-12-29T04:06:55;99677.06;;;-0.83;70.76
35694;BME280;21812;55.536;37.664;2022-12-29T04:09:21;99676.84;;;-0.80;71.02
35694;BME280;21812;55.536;37.664;2022-12-29T04:11:48;99676.56;;;-0.76;70.58
35694;BME280;21812;55.536;37.664;2022-12-29T04:14:14;99680.06;;;-0.76;70.62
35694;BME280;21812;55.536;37.664;2022-12-29T04:16:40;99683.63;;;-0.77;70.67
35694;BME280;21812;55.536;37.664;2022-12-29T04:19:07;99677.78;;;-0.69;70.54
35694;BME280;21812;55.536;37.664;2022-12-29T04:21:34;99671.81;;;-0.71;70.20
35694;BME280;21812;55.536;37.664;2022-12-29T04:24:00;99682.91;;;-0.79;70.17
35694;BME280;21812;55.536;37.664;2022-12-29T04:26:25;99680.88;;;-0.75;70.18
35694;BME280;21812;55.536;37.664;2022-12-29T04:29:07;99679.91;;;-0.74;69.79
35694;BME280;21812;55.536;37.664;2022-12-29T04:31:44;99684.31;;;-0.86;69.94
35694;BME280;21812;55.536;37.664;2022-12-29T04:34:11;99684.44;;;-0.88;69.95
35694;BME280;21812;55.536;37.664;2022-12-29T04:36:37;99683.00;;;-1.03;70.30
35694;BME280;21812;55.536;37.664;2022-12-29T04:39:04;99665.59;;;-1.04;70.38
35694;BME280;21812;55.536;37.664;2022-12-29T04:41:31;99682.06;;;-0.91;69.82
35694;BME280;21812;55.536;37.664;2022-12-29T04:43:57;99693.97;;;-0.87;69.62
35694;BME280;21812;55.536;37.664;2022-12-29T04:46:37;99698.16;;;-0.84;70.07
35694;BME280;21812;55.536;37.664;2022-12-29T04:49:09;99700.06;;;-0.86;69.89
35694;BME280;21812;55.536;37.664;2022-12-29T04:51:53;99705.66;;;-0.91;70.25
35694;BME280;21812;55.536;37.664;2022-12-29T04:54:22;99703.41;;;-0.73;70.42
35694;BME280;21812;55.536;37.664;2022-12-29T04:57:03;99702.00;;;-0.54;69.91
35694;BME280;21812;55.536;37.664;2022-12-29T04:59:29;99704.72;;;-0.45;69.63
35694;BME280;21812;55.536;37.664;2022-12-29T05:01:57;99704.25;;;-0.38;69.31
35694;BME280;21812;55.536;37.664;2022-12-29T05:04:23;99710.81;;;-0.44;69.12
35694;BME280;21812;55.536;37.664;2022-12-29T05:06:49;99707.59;;;-0.59;69.36
35694;BME280;21812;55.536;37.664;2022-12-29T05:09:16;99714.72;;;-0.61;69.78
35694;BME280;21812;55.536;37.664;2022-12-29T05:11:41;99709.84;;;-0.66;69.36
35694;BME280;21812;55.536;37.664;2022-12-29T05:14:08;99695.63;;;-0.86;69.57
35694;BME280;21812;55.536;37.664;2022-12-29T05:16:35;99691.13;;;-0.72;69.36
35694;BME280;21812;55.536;37.664;2022-12-29T05:19:00;99712.13;;;-0.50;69.09
35694;BME280;21812;55.536;37.664;2022-12-29T05:21:26;99717.13;;;-0.47;68.70
35694;BME280;21812;55.536;37.664;2022-12-29T05:23:52;99722.50;;;-0.48;68.94
35694;BME280;21812;55.536;37.664;2022-12-29T05:26:18;99720.84;;;-0.49;68.59
35694;BME280;21812;55.536;37.664;2022-12-29T05:29:09;99726.19;;;-0.40;68.79
35694;BME280;21812;55.536;37.664;2022-12-29T05:31:35;99722.59;;;-0.38;67.98
35694;BME280;21812;55.536;37.664;2022-12-29T05:34:02;99723.81;;;-0.54;67.80
35694;BME280;21812;55.536;37.664;2022-12-29T05:36:28;99730.97;;;-0.56;68.22
35694;BME280;21812;55.536;37.664;2022-12-29T05:38:58;99737.41;;;-0.60;67.98
35694;BME280;21812;55.536;37.664;2022-12-29T05:41:23;99734.28;;;-0.65;68.58
35694;BME280;21812;55.536;37.664;2022-12-29T05:43:58;99732.16;;;-0.60;68.62
35694;BME280;21812;55.536;37.664;2022-12-29T05:46:41;99737.41;;;-0.49;68.42
35694;BME280;21812;55.536;37.664;2022-12-29T05:49:30;99720.22;;;-0.64;67.86
35694;BME280;21812;55.536;37.664;2022-12-29T05:52:08;99736.91;;;-0.54;68.12
35694;BME280;21812;55.536;37.664;2022-12-29T05:54:34;99733.22;;;-0.63;67.85
35694;BME280;21812;55.536;37.664;2022-12-29T05:57:02;99737.75;;;-0.65;68.04
35694;BME280;21812;55.536;37.664;2022-12-29T05:59:29;99735.84;;;-0.63;68.09
35694;BME280;21812;55.536;37.664;2022-12-29T06:01:55;99740.72;;;-0.69;67.80
35694;BME280;21812;55.536;37.664;2022-12-29T06:04:20;99747.75;;;-0.70;67.97
35694;BME280;21812;55.536;37.664;2022-12-29T06:06:46;99745.94;;;-0.81;68.15
35694;BME280;21812;55.536;37.664;2022-12-29T06:09:21;99744.28;;;-0.82;68.52
35694;BME280;21812;55.536;37.664;2022-12-29T06:11:46;99753.34;;;-0.74;68.45
35694;BME280;21812;55.536;37.664;2022-12-29T06:14:12;99752.63;;;-0.76;68.07
35694;BME280;21812;55.536;37.664;2022-12-29T06:16:38;99744.06;;;-0.67;68.30
35694;BME280;21812;55.536;37.664;2022-12-29T06:19:08;99749.56;;;-0.59;68.29
35694;BME280;21812;55.536;37.664;2022-12-29T06:21:34;99748.50;;;-0.56;67.92
35694;BME280;21812;55.536;37.664;2022-12-29T06:24:01;99750.28;;;-0.57;67.48
35694;BME280;21812;55.536;37.664;2022-12-29T06:26:26;99758.41;;;-0.49;67.66
35694;BME280;21812;55.536;37.664;2022-12-29T06:28:52;99760.41;;;-0.52;67.03
35694;BME280;21812;55.536;37.664;2022-12-29T06:31:17;99753.84;;;-0.58;67.44
35694;BME280;21812;55.536;37.664;2022-12-29T06:33:44;99751.22;;;-0.58;67.89
35694;BME280;21812;55.536;37.664;2022-12-29T06:36:10;99755.28;;;-0.43;67.56
35694;BME280;21812;55.536;37.664;2022-12-29T06:38:35;99763.88;;;-0.41;66.74
35694;BME280;21812;55.536;37.664;2022-12-29T06:41:01;99762.81;;;-0.38;67.20
35694;BME280;21812;55.536;37.664;2022-12-29T06:43:56;99758.88;;;-0.32;67.07
35694;BME280;21812;55.536;37.664;2022-12-29T06:46:54;99760.44;;;-0.30;67.00
35694;BME280;21812;55.536;37.664;2022-12-29T06:49:20;99761.25;;;-0.29;66.96
35694;BME280;21812;55.536;37.664;2022-12-29T06:51:46;99759.13;;;-0.35;66.84
35694;BME280;21812;55.536;37.664;2022-12-29T06:54:12;99768.19;;;-0.28;66.72
35694;BME280;21812;55.536;37.664;2022-12-29T06:56:38;99765.78;;;-0.20;66.71
35694;BME280;21812;55.536;37.664;2022-12-29T06:59:03;99755.91;;;-0.28;66.44
35694;BME280;21812;55.536;37.664;2022-12-29T07:01:30;99759.59;;;-0.30;66.35
35694;BME280;21812;55.536;37.664;2022-12-29T07:03:55;99765.31;;;-0.36;66.50
35694;BME280;21812;55.536;37.664;2022-12-29T07:06:21;99754.81;;;-0.36;66.32
35694;BME280;21812;55.536;37.664;2022-12-29T07:08:47;99757.19;;;-0.33;66.52
35694;BME280;21812;55.536;37.664;2022-12-29T07:11:12;99761.63;;;-0.23;66.36
35694;BME280;21812;55.536;37.664;2022-12-29T07:13:38;99768.03;;;-0.15;65.97
35694;BME280;21812;55.536;37.664;2022-12-29T07:16:08;99763.88;;;-0.07;65.52
35694;BME280;21812;55.536;37.664;2022-12-29T07:18:34;99750.88;;;-0.20;65.56
35694;BME280;21812;55.536;37.664;2022-12-29T07:21:00;99771.97;;;-0.10;65.35
35694;BME280;21812;55.536;37.664;2022-12-29T07:23:26;99765.06;;;-0.11;65.29
35694;BME280;21812;55.536;37.664;2022-12-29T07:26:05;99764.59;;;-0.16;65.39
35694;BME280;21812;55.536;37.664;2022-12-29T07:28:31;99766.38;;;-0.28;65.55
35694;BME280;21812;55.536;37.664;2022-12-29T07:31:00;99765.69;;;-0.30;65.90
35694;BME280;21812;55.536;37.664;2022-12-29T07:33:28;99771.75;;;-0.18;66.12
35694;BME280;21812;55.536;37.664;2022-12-29T07:35:54;99761.97;;;-0.16;65.58
35694;BME280;21812;55.536;37.664;2022-12-29T07:38:20;99761.97;;;-0.27;65.59
35694;BME280;21812;55.536;37.664;2022-12-29T07:40:45;99774.50;;;-0.20;65.91
35694;BME280;21812;55.536;37.664;2022-12-29T07:43:11;99764.97;;;-0.21;65.50
35694;BME280;21812;55.536;37.664;2022-12-29T07:45:44;99771.03;;;-0.20;65.96
35694;BME280;21812;55.536;37.664;2022-12-29T07:48:10;99769.25;;;-0.08;66.02
35694;BME280;21812;55.536;37.664;2022-12-29T07:50:36;99769.63;;;-0.13;65.66
35694;BME280;21812;55.536;37.664;2022-12-29T07:53:02;99779.13;;;-0.12;65.79
35694;BME280;21812;55.536;37.664;2022-12-29T07:55:28;99762.09;;;-0.17;65.83
35694;BME280;21812;55.536;37.664;2022-12-29T07:57:55;99757.69;;;-0.17;65.28
35694;BME280;21812;55.536;37.664;2022-12-29T08:00:20;99788.31;;;-0.17;64.98
35694;BME280;21812;55.536;37.664;2022-12-29T08:02:46;99786.06;;;-0.33;65.72
35694;BME280;21812;55.536;37.664;2022-12-29T08:05:12;99780.09;;;-0.47;66.00
35694;BME280;21812;55.536;37.664;2022-12-29T08:07:38;99780.81;;;-0.33;66.57
35694;BME280;21812;55.536;37.664;2022-12-29T08:10:04;99789.41;;;-0.20;66.16
35694;BME280;21812;55.536;37.664;2022-12-29T08:12:30;99792.63;;;-0.16;66.00
35694;BME280;21812;55.536;37.664;2022-12-29T08:14:55;99785.25;;;-0.34;65.94
35694;BME280;21812;55.536;37.664;2022-12-29T08:17:21;99784.63;;;-0.37;66.34
35694;BME280;21812;55.536;37.664;2022-12-29T08:19:47;99789.63;;;-0.34;66.57
35694;BME280;21812;55.536;37.664;2022-12-29T08:22:15;99769.84;;;-0.27;66.21
35694;BME280;21812;55.536;37.664;2022-12-29T08:24:41;99787.88;;;-0.23;66.74
35694;BME280;21812;55.536;37.664;2022-12-29T08:27:06;99776.63;;;-0.13;66.64
35694;BME280;21812;55.536;37.664;2022-12-29T08:29:32;99794.88;;;-0.01;66.22
35694;BME280;21812;55.536;37.664;2022-12-29T08:31:57;99801.81;;;0.12;66.17
35694;BME280;21812;55.536;37.664;2022-12-29T08:34:23;99794.88;;;0.22;65.41
35694;BME280;21812;55.536;37.664;2022-12-29T08:36:49;99792.97;;;0.13;65.12
35694;BME280;21812;55.536;37.664;2022-12-29T08:39:14;99794.66;;;0.14;65.19
35694;BME280;21812;55.536;37.664;2022-12-29T08:41:40;99797.63;;;0.09;65.18
35694;BME280;21812;55.536;37.664;2022-12-29T08:44:06;99790.81;;;0.18;65.45
35694;BME280;21812;55.536;37.664;2022-12-29T08:46:32;99787.00;;;0.22;65.17
35694;BME280;21812;55.536;37.664;2022-12-29T08:48:57;99790.09;;;0.27;65.28
35694;BME280;21812;55.536;37.664;2022-12-29T08:51:23;99779.56;;;0.38;64.92
35694;BME280;21812;55.536;37.664;2022-12-29T08:53:48;99744.63;;;0.27;64.46
35694;BME280;21812;55.536;37.664;2022-12-29T08:56:14;99780.25;;;0.52;64.28
35694;BME280;21812;55.536;37.664;2022-12-29T08:58:47;99774.88;;;0.53;64.19
35694;BME280;21812;55.536;37.664;2022-12-29T09:01:13;99773.41;;;0.49;64.26
35694;BME280;21812;55.536;37.664;2022-12-29T09:03:38;99781.75;;;0.66;64.41
35694;BME280;21812;55.536;37.664;2022-12-29T09:06:04;99781.81;;;0.75;64.09
35694;BME280;21812;55.536;37.664;2022-12-29T09:08:30;99762.31;;;0.78;63.82
35694;BME280;21812;55.536;37.664;2022-12-29T09:11:05;99722.88;;;0.57;63.83
35694;BME280;21812;55.536;37.664;2022-12-29T09:13:31;99772.66;;;0.91;63.47
35694;BME280;21812;55.536;37.664;2022-12-29T09:15:59;99779.50;;;0.93;63.17
35694;BME280;21812;55.536;37.664;2022-12-29T09:18:25;99769.97;;;0.81;63.43
35694;BME280;21812;55.536;37.664;2022-12-29T09:21:03;99783.69;;;0.85;63.42
35694;BME280;21812;55.536;37.664;2022-12-29T09:23:30;99779.53;;;0.82;63.68
35694;BME280;21812;55.536;37.664;2022-12-29T09:25:56;99784.41;;;0.87;63.71
35694;BME280;21812;55.536;37.664;2022-12-29T09:28:22;99766.50;;;0.81;63.84
35694;BME280;21812;55.536;37.664;2022-12-29T09:30:48;99785.75;;;0.81;63.70
35694;BME280;21812;55.536;37.664;2022-12-29T09:33:15;99789.09;;;0.83;63.93
35694;BME280;21812;55.536;37.664;2022-12-29T09:35:42;99777.31;;;0.66;63.75
35694;BME280;21812;55.536;37.664;2022-12-29T09:38:08;99783.91;;;0.61;64.44
35694;BME280;21812;55.536;37.664;2022-12-29T09:40:34;99777.63;;;0.52;64.46
35694;BME280;21812;55.536;37.664;2022-12-29T09:45:45;99790.56;;;0.65;64.24
35694;BME280;21812;55.536;37.664;2022-12-29T09:48:23;99786.28;;;0.64;64.35
35694;BME280;21812;55.536;37.664;2022-12-29T09:50:55;99788.03;;;0.42;64.37
35694;BME280;21812;55.536;37.664;2022-12-29T09:53:29;99776.13;;;0.27;65.36
35694;BME280;21812;55.536;37.664;2022-12-29T09:55:59;99714.13;;;-0.31;65.75
35694;BME280;21812;55.536;37.664;2022-12-29T09:58:32;99764.25;;;-0.11;66.65
35694;BME280;21812;55.536;37.664;2022-12-29T10:03:51;99778.69;;;-0.06;67.12
35694;BME280;21812;55.536;37.664;2022-12-29T10:17:50;99757.06;;;0.13;66.38
35694;BME280;21812;55.536;37.664;2022-12-29T10:20:31;99779.81;;;0.24;67.06
35694;BME280;21812;55.536;37.664;2022-12-29T10:23:05;99779.22;;;0.32;66.61
35694;BME280;21812;55.536;37.664;2022-12-29T10:25:38;99708.75;;;-0.07;66.93
35694;BME280;21812;55.536;37.664;2022-12-29T10:31:01;99720.41;;;0.12;66.38
35694;BME280;21812;55.536;37.664;2022-12-29T10:33:35;99736.72;;;0.27;66.57
35694;BME280;21812;55.536;37.664;2022-12-29T10:36:12;99780.69;;;0.57;66.04
35694;BME280;21812;55.536;37.664;2022-12-29T10:38:44;99777.25;;;0.45;66.27
35694;BME280;21812;55.536;37.664;2022-12-29T10:41:36;99791.22;;;0.46;66.62
35694;BME280;21812;55.536;37.664;2022-12-29T10:44:03;99767.56;;;0.46;66.48
35694;BME280;21812;55.536;37.664;2022-12-29T10:46:35;99794.38;;;0.72;66.33
35694;BME280;21812;55.536;37.664;2022-12-29T10:49:04;99790.00;;;0.61;65.77
35694;BME280;21812;55.536;37.664;2022-12-29T10:51:39;99682.59;;;-0.08;66.34
35694;BME280;21812;55.536;37.664;2022-12-29T10:54:15;99789.63;;;0.66;66.38
35694;BME280;21812;55.536;37.664;2022-12-29T10:56:47;99770.75;;;0.61;66.37
35694;BME280;21812;55.536;37.664;2022-12-29T10:59:22;99717.59;;;0.25;66.49
35694;BME280;21812;55.536;37.664;2022-12-29T11:05:02;99781.31;;;0.82;66.13
35694;BME280;21812;55.536;37.664;2022-12-29T11:07:30;99779.84;;;0.89;65.92
35694;BME280;21812;55.536;37.664;2022-12-29T11:10:16;99764.53;;;0.73;66.57
35694;BME280;21812;55.536;37.664;2022-12-29T11:12:55;99698.94;;;0.39;66.70
35694;BME280;21812;55.536;37.664;2022-12-29T11:15:21;99761.50;;;0.77;66.28
35694;BME280;21812;55.536;37.664;2022-12-29T11:17:49;99717.66;;;0.46;66.29
35694;BME280;21812;55.536;37.664;2022-12-29T11:20:36;99650.25;;;0.03;66.61
35694;BME280;21812;55.536;37.664;2022-12-29T11:23:05;99695.53;;;0.27;67.07
35694;BME280;21812;55.536;37.664;2022-12-29T11:25:46;99766.16;;;0.74;66.88
35694;BME280;21812;55.536;37.664;2022-12-29T11:28:16;99763.50;;;0.85;66.55
35694;BME280;21812;55.536;37.664;2022-12-29T11:30:42;99761.72;;;0.86;66.04
35694;BME280;21812;55.536;37.664;2022-12-29T11:33:09;99746.00;;;0.74;65.96
35694;BME280;21812;55.536;37.664;2022-12-29T11:35:36;99759.97;;;0.75;66.53
35694;BME280;21812;55.536;37.664;2022-12-29T11:38:25;99699.53;;;0.43;66.60
35694;BME280;21812;55.536;37.664;2022-12-29T11:40:51;99753.31;;;0.71;66.94
35694;BME280;21812;55.536;37.664;2022-12-29T11:43:34;99767.50;;;0.68;67.30
35694;BME280;21812;55.536;37.664;2022-12-29T11:46:03;99758.91;;;0.66;67.75
35694;BME280;21812;55.536;37.664;2022-12-29T11:48:40;99769.31;;;0.68;68.11
35694;BME280;21812;55.536;37.664;2022-12-29T11:51:07;99762.53;;;0.65;67.98
35694;BME280;21812;55.536;37.664;2022-12-29T11:53:44;99703.09;;;0.42;68.08
35694;BME280;21812;55.536;37.664;2022-12-29T11:56:17;99767.72;;;0.76;67.60
35694;BME280;21812;55.536;37.664;2022-12-29T11:58:44;99775.84;;;0.73;67.66
35694;BME280;21812;55.536;37.664;2022-12-29T12:09:49;99786.75;;;1.01;67.01
35694;BME280;21812;55.536;37.664;2022-12-29T12:12:23;99786.41;;;0.94;66.95
35694;BME280;21812;55.536;37.664;2022-12-29T12:14:55;99792.53;;;0.84;67.35
35694;BME280;21812;55.536;37.664;2022-12-29T12:18:15;99785.38;;;0.86;67.82
35694;BME280;21812;55.536;37.664;2022-12-29T12:20:54;99726.13;;;0.49;67.65
35694;BME280;21812;55.536;37.664;2022-12-29T12:26:19;99787.03;;;0.87;67.92
35694;BME280;21812;55.536;37.664;2022-12-29T12:28:52;99786.22;;;0.86;67.76
35694;BME280;21812;55.536;37.664;2022-12-29T12:31:27;99791.09;;;0.91;67.37
35694;BME280;21812;55.536;37.664;2022-12-29T12:34:03;99723.47;;;0.61;67.00
35694;BME280;21812;55.536;37.664;2022-12-29T12:36:48;99714.28;;;0.55;67.60
35694;BME280;21812;55.536;37.664;2022-12-29T12:50:49;99782.53;;;0.77;67.96
35694;BME280;21812;55.536;37.664;2022-12-29T13:04:12;99709.38;;;0.29;68.55
35694;BME280;21812;55.536;37.664;2022-12-29T13:21:55;99780.56;;;0.58;69.20
35694;BME280;21812;55.536;37.664;2022-12-29T13:24:00;99784.44;;;0.75;69.32
35694;BME280;21812;55.536;37.664;2022-12-29T13:26:32;99773.69;;;0.78;68.72
35694;BME280;21812;55.536;37.664;2022-12-29T13:37:26;99769.44;;;0.66;68.22
35694;BME280;21812;55.536;37.664;2022-12-29T13:40:02;99750.84;;;0.58;68.20
35694;BME280;21812;55.536;37.664;2022-12-29T13:42:29;99785.44;;;0.74;68.25
35694;BME280;21812;55.536;37.664;2022-12-29T13:45:02;99781.13;;;0.73;68.57
35694;BME280;21812;55.536;37.664;2022-12-29T13:47:55;99668.91;;;0.21;68.12
35694;BME280;21812;55.536;37.664;2022-12-29T13:50:26;99715.88;;;0.46;68.54
35694;BME280;21812;55.536;37.664;2022-12-29T13:55:49;99781.13;;;0.73;68.28
35694;BME280;21812;55.536;37.664;2022-12-29T14:03:51;99787.63;;;0.58;69.32
35694;BME280;21812;55.536;37.664;2022-12-29T14:06:22;99776.63;;;0.53;69.29
35694;BME280;21812;55.536;37.664;2022-12-29T14:08:59;99781.38;;;0.59;69.74
35694;BME280;21812;55.536;37.664;2022-12-29T14:11:36;99765.19;;;0.54;69.59
35694;BME280;21812;55.536;37.664;2022-12-29T14:14:22;99787.09;;;0.75;69.69
35694;BME280;21812;55.536;37.664;2022-12-29T14:16:49;99787.34;;;0.72;69.68
35694;BME280;21812;55.536;37.664;2022-12-29T14:19:20;99784.72;;;0.72;69.68
35694;BME280;21812;55.536;37.664;2022-12-29T14:26:58;99778.66;;;0.61;69.84
35694;BME280;21812;55.536;37.664;2022-12-29T14:31:51;99787.50;;;0.60;70.21
35694;BME280;21812;55.536;37.664;2022-12-29T14:36:54;99728.28;;;0.12;71.07
35694;BME280;21812;55.536;37.664;2022-12-29T14:39:37;99752.84;;;0.22;71.67
35694;BME280;21812;55.536;37.664;2022-12-29T14:45:21;99785.63;;;0.50;71.82
35694;BME280;21812;55.536;37.664;2022-12-29T14:47:51;99765.97;;;0.33;71.66
35694;BME280;21812;55.536;37.664;2022-12-29T14:50:20;99772.38;;;0.41;72.04
35694;BME280;21812;55.536;37.664;2022-12-29T14:57:51;99773.81;;;0.45;72.66
35694;BME280;21812;55.536;37.664;2022-12-29T15:00:27;99708.69;;;0.16;72.34
35694;BME280;21812;55.536;37.664;2022-12-29T15:03:19;99780.22;;;0.63;72.40
35694;BME280;21812;55.536;37.664;2022-12-29T15:05:53;99726.97;;;0.17;72.13
35694;BME280;21812;55.536;37.664;2022-12-29T15:08:31;99741.72;;;0.30;72.80
35694;BME280;21812;55.536;37.664;2022-12-29T15:11:03;99793.59;;;0.60;72.40
35694;BME280;21812;55.536;37.664;2022-12-29T15:13:38;99757.34;;;0.43;72.10
35694;BME280;21812;55.536;37.664;2022-12-29T15:16:17;99789.03;;;0.62;72.17
35694;BME280;21812;55.536;37.664;2022-12-29T15:18:45;99778.31;;;0.54;71.88
35694;BME280;21812;55.536;37.664;2022-12-29T15:21:12;99740.63;;;0.32;72.27
35694;BME280;21812;55.536;37.664;2022-12-29T15:23:43;99761.97;;;0.50;72.02
35694;BME280;21812;55.536;37.664;2022-12-29T15:26:10;99769.03;;;0.50;72.05
35694;BME280;21812;55.536;37.664;2022-12-29T15:28:45;99733.50;;;0.34;72.23
35694;BME280;21812;55.536;37.664;2022-12-29T15:31:15;99779.63;;;0.60;72.21
35694;BME280;21812;55.536;37.664;2022-12-29T15:33:43;99699.41;;;0.12;72.06
35694;BME280;21812;55.536;37.664;2022-12-29T15:36:18;99778.03;;;0.68;71.99
35694;BME280;21812;55.536;37.664;2022-12-29T15:38:45;99772.56;;;0.60;72.12
35694;BME280;21812;55.536;37.664;2022-12-29T15:41:24;99773.84;;;0.66;72.26
35694;BME280;21812;55.536;37.664;2022-12-29T15:47:11;99721.28;;;0.33;72.01
35694;BME280;21812;55.536;37.664;2022-12-29T15:49:42;99767.78;;;0.65;71.79